• Join FlightAware (Why Join?)
  • Login
  • US Flag 
07:40AM EDT


 

Airport Tracker/Info


-or-


 

Live Flight TrackerFlight Track Log ✈ N775D ✈ 25-Jul-2013 ✈ MDLR / LRM - TJIG / SIG

Flight Track Log - Related Links

Times and Time Zones

All times are in EDT time to prevent confusion due to time zone crossing. See the N775D flight status page for this flight to view local times or setup timezone preferences in your user account.

Time Position Orientation Groundspeed Altitude Reporting Facility
EDT Latitude Longitude Course Direction KTS MPH feet Rate Location/Type
04:35PM 18.4833 -68.5833 71° East 150 173 10,700  Level San Juan Center
04:36PM 18.5000 -68.5500 62° Northeast 150 173 11,800 1,020 Climbing San Juan Center
04:37PM 18.5333 -68.5167 43° Northeast 160 184 12,800 900 Climbing San Juan Center
04:38PM 18.5500 -68.4667 71° East 160 184 13,700 900 Climbing San Juan Center
04:39PM 18.4553 -68.3398 89° East  Level Estimated
04:39PM 18.5833 -68.4333 43° Northeast 170 196 14,700  Level San Juan Center
04:40PM 18.4557 -68.2804 90° East  Level Estimated
04:40PM 18.6000 -68.3833 71° East 180 207 15,000  Level San Juan Center
04:41PM 18.6333 -68.3333 55° Northeast 210 242 15,000  Level San Juan Center
04:42PM 18.6667 -68.2667 62° Northeast 220 253 15,000  Level San Juan Center
04:43PM 18.7000 -68.2167 55° Northeast 220 253 15,000  Level San Juan Center
04:44PM 18.7333 -68.1667 55° Northeast 220 253 15,000  Level San Juan Center
04:45PM 18.7667 -68.1000 62° Northeast 240 276 15,000  Level San Juan Center
04:46PM 18.8000 -68.0500 55° Northeast 230 265 15,000  Level San Juan Center
04:47PM 18.8167 -68.0000 71° East 230 265 15,000  Level San Juan Center
04:48PM 18.8167 -67.9333 90° East 230 265 15,000  Level San Juan Center
04:49PM 18.7833 -67.8500 113° Southeast 230 265 15,000  Level San Juan Center
04:50PM 18.8000 -67.8000 71° East 230 265 15,000  Level San Juan Center
04:51PM 18.7833 -67.7167 102° East 240 276 15,000  Level San Juan Center
04:52PM 18.7667 -67.6500 105° East 240 276 15,000  Level San Juan Center
04:53PM 18.7500 -67.6000 109° East 220 253 15,000  Level San Juan Center
04:54PM 18.7333 -67.5167 102° East 240 276 15,000  Level San Juan Center
04:55PM 18.7333 -67.4500 90° East 230 265 15,100  Climbing San Juan Center
04:56PM 18.7000 -67.3833 118° Southeast 240 276 15,100 -60 Level San Juan Center
04:57PM 18.6833 -67.3167 105° East 230 265 15,000 -720 Descending San Juan Center
04:58PM 18.6833 -67.2500 90° East 260 299 13,700 -1,440 Descending San Juan Center
04:59PM 18.6667 -67.1667 102° East 250 288 12,200 -1,500 Descending San Juan Center
05:00PM 18.6500 -67.1000 105° East 250 288 10,700 -1,560 Descending San Juan Center
05:01PM 18.6333 -67.0333 105° East 230 265 9,100 -1,680 Descending San Juan Center
05:02PM 18.6167 -66.9833 109° East 210 242 7,400 -1,080 Descending San Juan Center
05:03PM 18.6167 -66.9167 90° East 200 230 7,000 -240 Descending San Juan Center
05:04PM 18.6000 -66.8667 109° East 210 242 7,000  Level San Juan Center
05:05PM 18.6000 -66.8000 90° East 210 242 7,000  Level San Juan Center
05:06PM 18.5833 -66.7500 109° East 210 242 7,000  Level San Juan Center
05:07PM 18.5667 -66.6833 105° East 210 242 7,000  Level San Juan Center
05:08PM 18.5500 -66.6167 105° East 210 242 7,000  Level San Juan Center
05:09PM 18.5333 -66.5500 105° East 220 253 7,000  Level San Juan Center
05:10PM 18.5333 -66.4833 90° East 220 253 7,000 -420 Level San Juan Center
05:12PM 18.5167 -66.4333 109° East 210 242 6,200 -1,200 Descending San Juan Center
05:13PM 18.5000 -66.3667 105° East 210 242 4,600 -1,500 Descending San Juan Center
05:14PM 18.4833 -66.3167 109° East 210 242 3,200 -840 Descending San Juan Center
05:15PM 18.4667 -66.2667 109° East 170 196 3,000 -420 Descending San Juan Center
05:16PM 18.4500 -66.2167 109° East 180 207 2,400 -780 Descending San Juan Center
05:17PM 18.4500 -66.1500 90° East 180 207 1,500 -900 Descending San Juan Center
05:20PM 18.4568 -66.0981 90° East  Level Estimated